Time;durP1;ratioP1;P1;durP2;ratioP2;P2;SDS_P1;SDS_P2;PMS_P1;PMS_P2;Temp;Humidity;BMP_temperature;BMP_pressure;BME280_temperature;BME280_humidity;BME280_pressure;Samples;Min_cycle;Max_cycle;Signal;HPM_P1;HPM_P2
2022/07/07 00:01:39;;;;;;;0.35;0.10;;;;;;;15.82;100.00;101714.03;5064105;28;20039;-53
2022/07/07 00:04:05;;;;;;;0.63;0.47;;;;;;;15.76;100.00;101720.16;5064022;28;20408;-55
2022/07/07 00:06:31;;;;;;;0.55;0.20;;;;;;;15.70;100.00;101715.59;5040824;28;20085;-48
2022/07/07 00:08:57;;;;;;;2.92;0.00;;;;;;;15.73;100.00;101720.56;5066117;28;20016;-50
2022/07/07 00:11:24;;;;;;;5.78;0.43;;;;;;;15.69;100.00;101712.13;5055149;28;20034;-52
2022/07/07 00:13:51;;;;;;;0.20;0.10;;;;;;;15.70;100.00;101726.31;5060833;28;20064;-47
2022/07/07 00:16:16;;;;;;;1.90;0.73;;;;;;;15.73;100.00;101722.41;5057812;28;20036;-50
2022/07/07 00:18:42;;;;;;;1.38;0.03;;;;;;;15.69;100.00;101729.97;5071249;28;20055;-52
2022/07/07 00:21:07;;;;;;;1.85;0.38;;;;;;;15.62;100.00;101723.75;5064163;28;20028;-53
2022/07/07 00:23:33;;;;;;;0.65;0.10;;;;;;;15.61;100.00;101722.91;5064905;28;20354;-53
2022/07/07 00:25:58;;;;;;;0.85;0.00;;;;;;;15.64;100.00;101721.69;5055630;28;20025;-53
2022/07/07 00:28:23;;;;;;;1.35;0.03;;;;;;;15.66;100.00;101725.00;5061526;28;20028;-46
2022/07/07 00:30:49;;;;;;;0.35;0.00;;;;;;;15.73;100.00;101731.25;5062545;28;20071;-50
2022/07/07 00:33:14;;;;;;;0.63;0.00;;;;;;;15.77;100.00;101732.50;5059090;28;20048;-55
2022/07/07 00:35:40;;;;;;;0.82;0.10;;;;;;;15.79;100.00;101737.66;5060085;28;20094;-51
2022/07/07 00:38:06;;;;;;;0.43;0.10;;;;;;;15.82;100.00;101735.41;5057213;28;20121;-47
2022/07/07 00:40:31;;;;;;;0.25;0.22;;;;;;;15.94;100.00;101726.88;5060916;28;20037;-52
2022/07/07 00:42:57;;;;;;;0.50;0.30;;;;;;;15.99;100.00;101735.13;5055948;28;20458;-52
2022/07/07 00:45:24;;;;;;;0.40;0.00;;;;;;;16.07;100.00;101729.63;5059400;28;20056;-53
2022/07/07 00:47:49;;;;;;;1.70;0.10;;;;;;;16.07;100.00;101716.25;5066527;28;20032;-52
2022/07/07 00:50:14;;;;;;;0.10;0.00;;;;;;;16.07;100.00;101726.94;5060624;28;20040;-51
2022/07/07 00:52:40;;;;;;;2.85;0.38;;;;;;;16.15;100.00;101721.44;5055758;28;20025;-57
2022/07/07 00:55:08;;;;;;;0.50;0.13;;;;;;;16.18;100.00;101718.34;5051315;28;20035;-51
2022/07/07 00:57:33;;;;;;;0.50;0.43;;;;;;;16.19;100.00;101709.31;5065863;28;20032;-51
2022/07/07 01:00:01;;;;;;;0.88;0.10;;;;;;;16.20;100.00;101718.97;5062299;28;20052;-48
2022/07/07 01:02:29;;;;;;;0.98;0.15;;;;;;;16.18;100.00;101714.84;5056621;28;20470;-52
2022/07/07 01:04:56;;;;;;;0.43;0.10;;;;;;;16.13;100.00;101720.78;5050626;28;20366;-55
2022/07/07 01:07:22;;;;;;;3.75;0.20;;;;;;;16.13;100.00;101716.28;5057335;28;20032;-52
2022/07/07 01:09:47;;;;;;;0.10;0.00;;;;;;;16.13;100.00;101715.44;5062911;28;20437;-49
2022/07/07 01:12:13;;;;;;;0.00;0.00;;;;;;;16.08;100.00;101716.06;5062110;28;20029;-52
2022/07/07 01:14:39;;;;;;;2.40;0.20;;;;;;;16.09;100.00;101720.38;5064886;28;20060;-51
2022/07/07 01:17:04;;;;;;;1.65;0.08;;;;;;;16.05;100.00;101724.47;5055175;28;20045;-54
2022/07/07 01:19:30;;;;;;;3.40;0.05;;;;;;;15.90;100.00;101721.06;5059739;28;20040;-49
2022/07/07 01:22:03;;;;;;;0.20;0.20;;;;;;;15.81;100.00;101733.78;5058232;28;20393;-52
2022/07/07 01:24:30;;;;;;;3.88;0.43;;;;;;;15.79;100.00;101737.66;5063437;28;20456;-56
2022/07/07 01:27:06;;;;;;;5.05;0.20;;;;;;;15.80;100.00;101731.28;5055614;28;20040;-54
2022/07/07 01:29:38;;;;;;;0.50;0.00;;;;;;;15.75;100.00;101731.88;5049331;28;20033;-47
2022/07/07 01:32:05;;;;;;;0.43;0.10;;;;;;;15.78;100.00;101728.81;5061172;28;20628;-53
2022/07/07 01:34:30;;;;;;;1.65;0.70;;;;;;;15.82;100.00;101734.59;5057480;28;20032;-52
2022/07/07 01:36:56;;;;;;;0.13;0.00;;;;;;;15.89;100.00;101741.66;5062091;28;20538;-46
2022/07/07 01:39:21;;;;;;;1.75;0.08;;;;;;;15.96;100.00;101751.59;5065808;28;20481;-49
2022/07/07 01:41:46;;;;;;;0.32;0.10;;;;;;;15.97;100.00;101743.34;5060146;28;20033;-52
2022/07/07 01:44:12;;;;;;;0.10;0.10;;;;;;;15.98;100.00;101739.66;5063417;28;20085;-56
2022/07/07 01:46:37;;;;;;;0.70;0.20;;;;;;;15.98;100.00;101742.34;5060341;28;20077;-54
2022/07/07 01:49:02;;;;;;;2.28;0.30;;;;;;;16.01;100.00;101738.44;5063840;28;20465;-53
2022/07/07 01:51:28;;;;;;;0.50;0.45;;;;;;;16.01;100.00;101738.44;5047491;28;20051;-52
2022/07/07 01:53:53;;;;;;;1.00;0.20;;;;;;;15.95;100.00;101726.66;5040425;28;20025;-51
2022/07/07 01:56:18;;;;;;;0.45;0.32;;;;;;;15.91;100.00;101738.78;5054350;28;20500;-53
2022/07/07 01:58:44;;;;;;;0.65;0.28;;;;;;;15.91;100.00;101746.81;5063068;28;20037;-53
2022/07/07 02:01:09;;;;;;;3.13;0.30;;;;;;;15.91;100.00;101747.63;5060932;28;20032;-49
2022/07/07 02:03:35;;;;;;;2.95;1.08;;;;;;;15.94;100.00;101749.09;5056105;28;20041;-52
2022/07/07 02:06:00;;;;;;;1.05;0.10;;;;;;;15.94;100.00;101750.94;5054069;28;20107;-52
2022/07/07 02:08:25;;;;;;;0.63;0.10;;;;;;;15.94;100.00;101753.63;5058217;28;20431;-52
2022/07/07 02:13:35;;;;;;;1.48;0.08;;;;;;;15.90;100.00;101737.13;5057520;28;20087;-51
2022/07/07 02:16:00;;;;;;;0.38;0.30;;;;;;;15.86;100.00;101735.88;5055721;28;20037;-49
2022/07/07 02:18:26;;;;;;;0.55;0.10;;;;;;;15.84;100.00;101762.78;5044550;28;20036;-48
2022/07/07 02:20:51;;;;;;;1.35;0.00;;;;;;;15.81;100.00;101760.53;5060775;28;20047;-52
2022/07/07 02:23:17;;;;;;;0.98;0.08;;;;;;;15.75;100.00;101749.75;5058226;28;20162;-53
2022/07/07 02:25:42;;;;;;;1.00;0.38;;;;;;;15.69;100.00;101748.69;5064658;28;20079;-52
2022/07/07 02:28:07;;;;;;;0.10;0.10;;;;;;;15.57;100.00;101748.38;5066106;28;20032;-51
2022/07/07 02:30:32;;;;;;;0.43;0.10;;;;;;;15.54;100.00;101767.47;5055494;28;20394;-50
2022/07/07 02:32:58;;;;;;;1.23;0.95;;;;;;;15.57;100.00;101769.75;5053374;28;20028;-52
2022/07/07 02:35:23;;;;;;;1.17;0.10;;;;;;;15.57;100.00;101758.25;5063618;28;20396;-55
2022/07/07 02:37:48;;;;;;;0.80;0.25;;;;;;;15.51;100.00;101749.13;5067406;28;20137;-49
2022/07/07 02:40:14;;;;;;;2.20;0.30;;;;;;;15.49;100.00;101768.06;5059462;28;20136;-45
2022/07/07 02:42:39;;;;;;;0.65;0.10;;;;;;;15.47;100.00;101777.28;5061739;28;20453;-48
2022/07/07 02:45:05;;;;;;;0.25;0.10;;;;;;;15.48;100.00;101779.75;5068251;28;20117;-51
2022/07/07 02:47:30;;;;;;;1.65;0.40;;;;;;;15.46;100.00;101767.59;5068886;28;20040;-49
2022/07/07 02:49:56;;;;;;;1.17;0.00;;;;;;;15.40;100.00;101763.03;5057525;28;20116;-52
2022/07/07 02:52:21;;;;;;;4.10;0.10;;;;;;;15.30;100.00;101765.19;5057828;28;20029;-50
2022/07/07 02:54:47;;;;;;;2.08;0.20;;;;;;;15.24;100.00;101780.97;5070272;28;20028;-50
2022/07/07 02:57:13;;;;;;;2.03;0.80;;;;;;;15.19;100.00;101775.38;5068203;28;20120;-49
2022/07/07 02:59:38;;;;;;;0.88;0.10;;;;;;;15.22;100.00;101768.81;5063689;28;20131;-53
2022/07/07 03:02:04;;;;;;;0.63;0.13;;;;;;;15.26;100.00;101772.78;5064630;28;20107;-50
2022/07/07 03:04:29;;;;;;;0.63;0.52;;;;;;;15.28;100.00;101776.06;5057279;28;20043;-50
2022/07/07 03:06:54;;;;;;;1.42;0.30;;;;;;;15.38;100.00;101770.41;5064333;28;20031;-46
2022/07/07 03:09:20;;;;;;;2.10;0.85;;;;;;;15.42;100.00;101772.50;5067606;28;20105;-54
2022/07/07 03:11:45;;;;;;;0.50;0.08;;;;;;;15.46;100.00;101779.13;5056818;28;20110;-54
2022/07/07 03:14:10;;;;;;;2.40;0.10;;;;;;;15.46;100.00;101776.47;5048149;28;20040;-53
2022/07/07 03:16:36;;;;;;;0.10;0.10;;;;;;;15.47;100.00;101791.47;5057925;28;20029;-54
2022/07/07 03:19:01;;;;;;;0.68;0.20;;;;;;;15.46;100.00;101787.16;5062111;28;20054;-55
2022/07/07 03:21:26;;;;;;;4.22;0.13;;;;;;;15.48;100.00;101784.28;5065745;28;20028;-52
2022/07/07 03:23:52;;;;;;;0.88;0.10;;;;;;;15.47;100.00;101791.47;5066205;28;21496;-52
2022/07/07 03:26:17;;;;;;;3.30;0.20;;;;;;;15.47;100.00;101796.00;5057965;28;20120;-54
2022/07/07 03:28:42;;;;;;;0.80;0.20;;;;;;;15.43;100.00;101798.19;5057423;28;20064;-52
2022/07/07 03:31:08;;;;;;;0.10;0.10;;;;;;;15.43;100.00;101795.53;5059518;28;20028;-53
2022/07/07 03:33:33;;;;;;;1.10;0.10;;;;;;;15.45;100.00;101798.03;5066621;28;20127;-51
2022/07/07 03:35:59;;;;;;;1.45;0.10;;;;;;;15.46;100.00;101797.00;5056693;28;20064;-54
2022/07/07 03:38:24;;;;;;;5.53;0.30;;;;;;;15.45;100.00;101798.84;5059599;28;20461;-56
2022/07/07 03:40:49;;;;;;;0.22;0.22;;;;;;;15.45;100.00;101798.84;5061323;28;20330;-51
2022/07/07 03:43:15;;;;;;;1.65;0.10;;;;;;;15.48;100.00;101802.97;5063617;28;20426;-52
2022/07/07 03:45:40;;;;;;;0.50;0.10;;;;;;;15.47;100.00;101806.69;5066998;28;20025;-53
2022/07/07 03:48:06;;;;;;;1.67;0.10;;;;;;;15.45;100.00;101804.19;5061412;28;20036;-53
2022/07/07 03:50:31;;;;;;;0.98;0.00;;;;;;;15.46;100.00;101805.84;5072418;28;20029;-52
2022/07/07 03:52:57;;;;;;;1.38;0.10;;;;;;;15.49;100.00;101807.31;5069898;28;20024;-49
2022/07/07 03:55:23;;;;;;;0.60;0.45;;;;;;;15.52;100.00;101808.78;5068356;28;20033;-56
2022/07/07 03:57:48;;;;;;;0.10;0.08;;;;;;;15.51;100.00;101801.78;5069071;28;20027;-52
2022/07/07 04:00:14;;;;;;;0.20;0.20;;;;;;;15.50;100.00;101808.97;5050943;28;20096;-52
2022/07/07 04:02:39;;;;;;;0.10;0.10;;;;;;;15.48;100.00;101811.81;5061641;28;20395;-51
2022/07/07 04:05:05;;;;;;;2.92;0.20;;;;;;;15.50;100.00;101811.63;5053845;28;20029;-52
2022/07/07 04:07:33;;;;;;;0.22;0.05;;;;;;;15.49;100.00;101820.69;5056459;28;20075;-50
2022/07/07 04:10:00;;;;;;;0.20;0.10;;;;;;;15.43;100.00;101819.56;5057024;28;20020;-50
2022/07/07 04:12:25;;;;;;;0.15;0.05;;;;;;;15.43;100.00;101826.78;5069796;28;20028;-51
2022/07/07 04:14:50;;;;;;;9.52;0.30;;;;;;;15.44;100.00;101826.59;5058939;28;20085;-52
2022/07/07 04:17:16;;;;;;;1.52;0.10;;;;;;;15.45;100.00;101830.91;5063950;28;20040;-50
2022/07/07 04:19:41;;;;;;;2.28;0.28;;;;;;;15.39;100.00;101836.22;5060453;28;20039;-56
2022/07/07 04:22:07;;;;;;;2.10;0.65;;;;;;;15.26;100.00;101831.56;5073992;28;20056;-54
2022/07/07 04:24:32;;;;;;;0.75;0.00;;;;;;;15.19;100.00;101833.31;5068492;28;20084;-53
2022/07/07 04:26:57;;;;;;;0.22;0.10;;;;;;;15.18;100.00;101837.84;5053031;28;20047;-53
2022/07/07 04:29:23;;;;;;;0.10;0.10;;;;;;;15.18;100.00;101840.50;5055359;28;20032;-55
2022/07/07 04:31:48;;;;;;;1.80;0.93;;;;;;;15.20;100.00;101842.97;5061417;28;20052;-49
2022/07/07 04:34:14;;;;;;;2.58;0.10;;;;;;;15.21;100.00;101860.69;5057902;28;20025;-58
2022/07/07 04:36:40;;;;;;;3.92;0.65;;;;;;;15.17;100.00;101864.72;5062668;28;20036;-54
2022/07/07 04:39:05;;;;;;;0.93;0.35;;;;;;;15.14;100.00;101865.94;5048428;28;20032;-53
2022/07/07 04:41:31;;;;;;;0.85;0.20;;;;;;;15.13;100.00;101866.97;5060239;28;20024;-51
2022/07/07 04:43:56;;;;;;;0.17;0.10;;;;;;;15.08;100.00;101874.72;5058636;28;20112;-53
2022/07/07 04:46:21;;;;;;;0.28;0.00;;;;;;;14.95;100.00;101872.69;5055941;28;20062;-53
2022/07/07 04:48:47;;;;;;;0.30;0.00;;;;;;;14.89;100.00;101870.75;5062326;28;20089;-56
2022/07/07 04:51:12;;;;;;;0.52;0.10;;;;;;;14.86;100.00;101876.47;5049545;28;20036;-54
2022/07/07 04:53:37;;;;;;;2.83;0.28;;;;;;;14.83;100.00;101885.66;5065695;28;20103;-50
2022/07/07 04:56:04;;;;;;;0.70;0.10;;;;;;;14.79;100.00;101883.56;5055083;28;20584;-53
2022/07/07 04:58:29;;;;;;;0.65;0.43;;;;;;;14.78;100.00;101892.59;5050420;28;20431;-52
2022/07/07 05:00:54;;;;;;;2.78;0.80;;;;;;;14.81;100.00;101897.56;5051320;28;20020;-54
2022/07/07 05:03:20;;;;;;;1.58;0.03;;;;;;;14.84;100.00;101889.16;5059919;28;20170;-57
2022/07/07 05:05:45;;;;;;;1.02;0.30;;;;;;;14.88;100.00;101901.16;5056745;28;20059;-52
2022/07/07 05:08:10;;;;;;;0.30;0.10;;;;;;;14.89;100.00;101889.44;5055677;28;20477;-51
2022/07/07 05:10:36;;;;;;;1.95;0.10;;;;;;;14.89;100.00;101893.97;5058406;28;20457;-50
2022/07/07 05:13:01;;;;;;;1.85;0.55;;;;;;;14.87;100.00;101893.31;5058452;28;20432;-54
2022/07/07 05:15:26;;;;;;;2.08;0.17;;;;;;;14.90;100.00;101899.13;5036314;28;20033;-50
2022/07/07 05:17:52;;;;;;;0.10;0.10;;;;;;;14.92;100.00;101901.59;5051399;28;20029;-57
2022/07/07 05:20:17;;;;;;;2.03;0.10;;;;;;;14.92;100.00;101909.59;5057787;28;20051;-52
2022/07/07 05:22:43;;;;;;;2.47;0.20;;;;;;;14.89;100.00;101897.44;5057499;28;20028;-57
2022/07/07 05:25:08;;;;;;;4.55;0.25;;;;;;;14.87;100.00;101902.16;5056894;28;20036;-55
2022/07/07 05:27:33;;;;;;;0.35;0.20;;;;;;;14.87;100.00;101912.84;5057824;28;20078;-53
2022/07/07 05:29:59;;;;;;;1.08;0.00;;;;;;;14.88;100.00;101897.66;5057036;28;20032;-50
2022/07/07 05:32:24;;;;;;;1.13;0.10;;;;;;;14.86;100.00;101913.03;5050040;28;20463;-52
2022/07/07 05:34:50;;;;;;;1.58;0.30;;;;;;;14.86;100.00;101913.03;5054716;28;20054;-48
2022/07/07 05:37:15;;;;;;;0.57;0.03;;;;;;;14.87;100.00;101912.84;5054632;28;20060;-50
2022/07/07 05:39:40;;;;;;;6.93;1.08;;;;;;;14.90;100.00;101931.16;5051780;28;20036;-55
2022/07/07 05:42:06;;;;;;;0.40;0.10;;;;;;;14.91;100.00;101937.34;5059861;28;20113;-49
2022/07/07 05:44:31;;;;;;;0.80;0.30;;;;;;;14.88;100.00;101933.19;5052041;28;20071;-54
2022/07/07 05:46:56;;;;;;;1.38;0.85;;;;;;;14.85;100.00;101933.56;5060363;28;20025;-56
2022/07/07 05:49:22;;;;;;;0.70;0.20;;;;;;;14.78;100.00;101933.47;5062159;28;20070;-51
2022/07/07 05:51:47;;;;;;;2.05;0.45;;;;;;;14.79;100.00;101943.16;5056158;28;20017;-52
2022/07/07 05:54:13;;;;;;;0.93;0.13;;;;;;;14.82;100.00;101947.28;5063165;28;20128;-50
2022/07/07 05:56:38;;;;;;;1.70;0.13;;;;;;;14.86;100.00;101942.41;5049717;28;20035;-51
2022/07/07 05:59:04;;;;;;;0.55;0.10;;;;;;;14.89;100.00;101950.84;5053715;28;20028;-54
2022/07/07 06:01:29;;;;;;;0.30;0.00;;;;;;;14.92;100.00;101952.34;5055640;28;20203;-53
2022/07/07 06:03:54;;;;;;;2.75;0.52;;;;;;;14.92;100.00;101953.19;5059118;28;20027;-52
2022/07/07 06:06:20;;;;;;;5.18;0.80;;;;;;;14.92;100.00;101952.34;5057336;28;20036;-50
2022/07/07 06:08:45;;;;;;;1.58;0.90;;;;;;;14.87;100.00;101963.59;5053959;28;20043;-48
2022/07/07 06:11:10;;;;;;;0.57;0.30;;;;;;;14.90;100.00;101962.41;5051112;28;20033;-50
2022/07/07 06:13:36;;;;;;;2.75;0.77;;;;;;;14.92;100.00;101969.22;5051996;28;20434;-44
2022/07/07 06:16:01;;;;;;;1.33;0.52;;;;;;;14.90;100.00;101965.88;5056399;28;20052;-49
2022/07/07 06:18:27;;;;;;;2.95;0.45;;;;;;;14.91;100.00;101970.19;5051867;28;20021;-55
2022/07/07 06:20:53;;;;;;;0.13;0.13;;;;;;;14.91;100.00;101974.72;5049139;28;20434;-50
2022/07/07 06:23:18;;;;;;;0.35;0.10;;;;;;;14.90;100.00;101976.56;5047031;28;20032;-52
2022/07/07 06:25:45;;;;;;;1.80;0.20;;;;;;;14.89;100.00;101969.56;5048735;28;20086;-53
2022/07/07 06:28:11;;;;;;;0.60;0.20;;;;;;;14.93;100.00;101986.88;5048879;28;20073;-48
2022/07/07 06:30:36;;;;;;;1.25;0.03;;;;;;;14.82;100.00;101977.47;5053591;28;20064;-52
2022/07/07 06:33:02;;;;;;;3.28;0.10;;;;;;;14.77;100.00;101992.41;5051990;28;20029;-47
2022/07/07 06:35:27;;;;;;;0.10;0.05;;;;;;;14.75;100.00;101992.56;5055161;28;20047;-48
2022/07/07 06:37:53;;;;;;;0.35;0.10;;;;;;;14.78;100.00;101997.53;5052878;28;20052;-53
2022/07/07 06:40:19;;;;;;;0.15;0.05;;;;;;;14.80;100.00;102006.19;5048903;28;20020;-51
2022/07/07 06:42:44;;;;;;;0.65;0.10;;;;;;;14.82;100.00;102003.38;5040450;28;20028;-54
2022/07/07 06:45:10;;;;;;;0.08;0.00;;;;;;;14.81;100.00;102015.03;5054534;28;20032;-51
2022/07/07 06:47:35;;;;;;;1.60;0.30;;;;;;;14.78;100.00;102012.72;5054710;28;20127;-51
2022/07/07 06:50:01;;;;;;;0.73;0.10;;;;;;;14.74;100.00;102014.09;5057838;28;20392;-52
2022/07/07 06:52:26;;;;;;;0.57;0.10;;;;;;;14.76;100.00;102022.75;5052729;28;20538;-51
2022/07/07 06:54:51;;;;;;;1.30;0.28;;;;;;;14.76;100.00;102017.41;5046144;28;20120;-50
2022/07/07 06:57:17;;;;;;;0.10;0.10;;;;;;;14.80;100.00;102029.41;5056401;28;20029;-49
2022/07/07 06:59:42;;;;;;;1.55;0.10;;;;;;;14.85;100.00;102026.19;5052851;28;20061;-52
2022/07/07 07:02:07;;;;;;;0.00;0.00;;;;;;;14.77;100.00;102022.59;5047348;28;20070;-53
2022/07/07 07:04:33;;;;;;;0.20;0.00;;;;;;;14.77;100.00;102030.59;5050892;28;20432;-50
2022/07/07 07:06:58;;;;;;;0.80;0.10;;;;;;;14.77;100.00;102025.25;5052690;28;20148;-53
2022/07/07 07:09:23;;;;;;;2.10;0.20;;;;;;;14.80;100.00;102030.22;5053312;28;20116;-54
2022/07/07 07:11:49;;;;;;;2.13;0.00;;;;;;;14.81;100.00;102036.41;5053583;28;20075;-54
2022/07/07 07:14:15;;;;;;;4.55;0.35;;;;;;;14.85;100.00;102042.22;5055870;28;20029;-52
2022/07/07 07:16:41;;;;;;;0.30;0.10;;;;;;;14.96;100.00;102036.44;5052852;28;20025;-52
2022/07/07 07:19:06;;;;;;;1.30;0.70;;;;;;;15.13;100.00;102045.13;5056614;28;20478;-52
2022/07/07 07:21:32;;;;;;;0.63;0.22;;;;;;;15.29;100.00;102044.13;5055491;28;20060;-53
2022/07/07 07:23:57;;;;;;;1.35;0.10;;;;;;;15.23;100.00;102046.50;5053378;28;20025;-50
2022/07/07 07:26:23;;;;;;;0.73;0.20;;;;;;;15.21;100.00;102047.69;5054323;28;20186;-51
2022/07/07 07:28:49;;;;;;;0.45;0.10;;;;;;;15.19;100.00;102047.88;5057317;28;20053;-52
2022/07/07 07:31:14;;;;;;;1.38;0.32;;;;;;;15.18;100.00;102058.72;5056419;28;20119;-50
2022/07/07 07:33:39;;;;;;;0.25;0.08;;;;;;;15.16;100.00;102066.94;5053915;28;20096;-45
2022/07/07 07:36:08;;;;;;;0.32;0.32;;;;;;;15.18;100.00;102058.72;5056301;28;20586;-50
2022/07/07 07:38:35;;;;;;;1.35;0.00;;;;;;;15.33;100.00;102062.25;5054092;28;20403;-54
2022/07/07 07:41:05;;;;;;;0.10;0.00;;;;;;;15.41;100.00;102067.53;5057991;28;20165;-51
2022/07/07 07:43:30;;;;;;;0.85;0.10;;;;;;;15.51;100.00;102064.56;5063020;28;20033;-46
2022/07/07 07:45:56;;;;;;;1.48;0.15;;;;;;;15.54;100.00;102068.69;5064862;28;20342;-52
2022/07/07 07:48:21;;;;;;;6.68;1.65;;;;;;;15.63;100.00;102068.41;5064784;28;20036;-49
2022/07/07 07:50:46;;;;;;;0.30;0.10;;;;;;;15.59;100.00;102060.94;5055933;28;20079;-51
2022/07/07 07:53:12;;;;;;;1.75;0.10;;;;;;;15.70;100.00;102063.19;5061314;28;20351;-57
2022/07/07 07:55:38;;;;;;;1.35;0.10;;;;;;;15.81;100.00;102054.69;5061508;28;20052;-55
2022/07/07 07:58:04;;;;;;;0.10;0.00;;;;;;;15.96;100.00;102062.69;5063062;28;20494;-51
2022/07/07 08:00:29;;;;;;;0.90;0.10;;;;;;;16.07;100.00;102061.38;5065956;28;20055;-52
2022/07/07 08:02:55;;;;;;;3.00;0.17;;;;;;;16.21;100.00;102065.84;5057537;28;20036;-52
2022/07/07 08:05:20;;;;;;;0.65;0.30;;;;;;;16.35;100.00;102062.28;5059580;28;20052;-54
2022/07/07 08:07:46;;;;;;;1.00;0.20;;;;;;;16.55;100.00;102067.00;5068077;28;20105;-51
2022/07/07 08:10:13;;;;;;;0.52;0.28;;;;;;;16.67;100.00;102068.13;5068777;28;20037;-53
2022/07/07 08:12:39;;;;;;;0.85;0.32;;;;;;;16.66;100.00;102066.47;5067258;28;20448;-50
2022/07/07 08:15:06;;;;;;;0.85;0.10;;;;;;;16.71;100.00;102077.44;5055492;28;20114;-56
2022/07/07 08:17:31;;;;;;;0.08;0.00;;;;;;;16.75;100.00;102085.91;5060127;28;20039;-56
2022/07/07 08:19:56;;;;;;;1.42;0.10;;;;;;;16.62;100.00;102075.09;5059976;28;20025;-52
2022/07/07 08:22:22;;;;;;;0.93;0.10;;;;;;;16.53;100.00;102079.75;5062476;28;20150;-54
2022/07/07 08:24:47;;;;;;;0.28;0.00;;;;;;;16.41;100.00;102083.94;5055712;28;20420;-51
2022/07/07 08:27:13;;;;;;;0.77;0.20;;;;;;;16.50;100.00;102091.69;5056237;28;20060;-52
2022/07/07 08:29:39;;;;;;;2.10;0.00;;;;;;;16.44;100.00;102087.06;5036315;28;20033;-54
2022/07/07 08:32:13;;;;;;;1.40;0.32;;;;;;;16.61;100.00;102089.50;5060024;28;20078;-49
2022/07/07 08:34:39;;;;;;;3.38;0.30;;;;;;;16.91;100.00;102092.88;5060973;28;20029;-50
2022/07/07 08:37:05;;;;;;;0.28;0.00;;;;;;;17.00;100.00;102086.38;5053618;28;20028;-55
2022/07/07 08:39:30;;;;;;;3.97;0.00;;;;;;;17.07;100.00;102089.94;5061101;28;20051;-53
2022/07/07 08:41:56;;;;;;;0.35;0.30;;;;;;;17.06;100.00;102090.94;5063011;28;20119;-47
2022/07/07 08:44:21;;;;;;;0.30;0.05;;;;;;;16.85;100.00;102091.81;5045718;28;20051;-52
2022/07/07 08:46:47;;;;;;;0.80;0.10;;;;;;;16.83;100.00;102091.19;5059958;28;20474;-52
2022/07/07 08:49:12;;;;;;;1.08;0.10;;;;;;;16.91;100.00;102103.59;5062223;28;20040;-53
2022/07/07 08:51:41;;;;;;;0.57;0.10;;;;;;;16.81;100.00;102095.91;5060310;28;20464;-47
2022/07/07 08:54:09;;;;;;;0.82;0.00;;;;;;;16.81;100.00;102100.44;5061220;28;20032;-54
2022/07/07 08:56:38;;;;;;;0.88;0.20;;;;;;;16.98;100.00;102099.94;5056351;28;20037;-55
2022/07/07 08:59:06;;;;;;;0.10;0.03;;;;;;;17.14;100.00;102104.22;5064136;28;20029;-49
2022/07/07 09:01:32;;;;;;;1.55;0.10;;;;;;;17.44;100.00;102110.16;5060563;28;20138;-54
2022/07/07 09:03:57;;;;;;;0.25;0.10;;;;;;;17.53;100.00;102099.28;5053482;28;20070;-50
2022/07/07 09:06:23;;;;;;;0.90;0.00;;;;;;;17.47;100.00;102097.41;5051674;28;20033;-50
2022/07/07 09:08:48;;;;;;;1.00;0.10;;;;;;;17.42;100.00;102108.72;5058037;28;20453;-56
2022/07/07 09:11:14;;;;;;;1.77;0.20;;;;;;;17.69;100.00;102108.88;5064872;28;20108;-57
2022/07/07 09:13:39;;;;;;;2.38;0.22;;;;;;;17.96;100.00;102110.66;5059473;28;20465;-56
2022/07/07 09:16:15;;;;;;;1.60;0.10;;;;;;;17.89;100.00;102112.50;5058175;28;20056;-48
2022/07/07 09:18:42;;;;;;;0.10;0.03;;;;;;;17.74;100.00;102114.47;5043654;28;20029;-48
2022/07/07 09:21:31;;;;;;;3.05;0.10;;;;;;;17.86;100.00;102116.44;5054730;28;20040;-54
2022/07/07 09:24:01;;;;;;;8.77;1.38;;;;;;;17.86;100.00;102123.63;5054578;28;20044;-54
2022/07/07 09:26:47;;;;;;;0.40;0.10;;;;;;;18.20;100.00;102116.53;5062996;28;20141;-51
2022/07/07 09:29:18;;;;;;;2.17;0.30;;;;;;;18.39;100.00;102118.44;5057419;28;20508;-54
2022/07/07 09:31:58;;;;;;;1.27;0.77;;;;;;;18.44;100.00;102117.84;5054718;28;20093;-56
2022/07/07 09:34:35;;;;;;;2.30;0.57;;;;;;;18.13;100.00;102115.69;5062439;28;20358;-51
2022/07/07 09:39:57;;;;;;;0.10;0.10;;;;;;;18.19;100.00;102122.94;5050936;28;20436;-51
2022/07/07 09:42:31;;;;;;;5.47;0.20;;;;;;;18.54;100.00;102120.97;5061395;28;20176;-55
2022/07/07 09:45:00;;;;;;;2.55;0.90;;;;;;;18.74;100.00;102126.34;5061100;28;20468;-52
2022/07/07 09:47:26;;;;;;;0.45;0.25;;;;;;;18.71;100.00;102124.06;5067905;28;20020;-51
2022/07/07 09:50:02;;;;;;;0.82;0.00;;;;;;;18.68;100.00;102119.13;5051937;28;20497;-49
2022/07/07 09:52:29;;;;;;;1.65;0.25;;;;;;;18.68;100.00;102127.19;5051133;28;20025;-54
2022/07/07 09:54:57;;;;;;;6.10;0.13;;;;;;;18.87;100.00;102133.63;5054871;28;20029;-55
2022/07/07 09:57:22;;;;;;;1.90;0.00;;;;;;;19.08;100.00;102127.25;5058915;28;20047;-50
2022/07/07 09:59:48;;;;;;;0.65;0.10;;;;;;;18.94;100.00;102131.78;5058769;28;20033;-54
2022/07/07 10:02:19;;;;;;;3.85;0.30;;;;;;;18.78;100.00;102133.00;5066481;28;20385;-52
2022/07/07 10:04:48;;;;;;;0.25;0.10;;;;;;;18.68;100.00;102138.75;5058555;28;20036;-53
2022/07/07 10:07:18;;;;;;;0.75;0.08;;;;;;;18.49;100.00;102143.06;5056076;28;20031;-50
2022/07/07 10:09:44;;;;;;;0.25;0.00;;;;;;;18.51;100.00;102149.06;5063773;28;20036;-51
2022/07/07 10:12:10;;;;;;;2.05;0.20;;;;;;;18.63;100.00;102154.66;5053974;28;20025;-61
2022/07/07 10:14:41;;;;;;;4.28;0.10;;;;;;;18.41;100.00;102156.69;5054547;28;20033;-51
2022/07/07 10:17:07;;;;;;;0.45;0.32;;;;;;;18.38;100.00;102154.41;5053227;28;20492;-53
2022/07/07 10:19:33;;;;;;;0.30;0.03;;;;;;;18.45;100.00;102163.28;5064505;28;20555;-48
2022/07/07 10:21:59;;;;;;;1.40;0.55;;;;;;;18.49;100.00;102174.47;5059753;28;20037;-49
2022/07/07 10:24:28;;;;;;;5.68;0.52;;;;;;;18.53;100.00;102175.69;5049835;28;20403;-47
2022/07/07 10:26:59;;;;;;;6.30;0.40;;;;;;;18.53;100.00;102181.91;5051972;28;20039;-51
2022/07/07 10:29:44;;;;;;;1.15;0.08;;;;;;;18.63;100.00;102173.44;5062984;28;20048;-48
2022/07/07 10:32:15;;;;;;;1.00;0.08;;;;;;;18.59;100.00;102179.44;5058654;28;20108;-50
2022/07/07 10:34:48;;;;;;;;;;;;;;;18.48;100.00;102184.38;5054401;28;20021;-54
2022/07/07 10:37:14;;;;;;;0.80;0.00;;;;;;;18.44;100.00;102184.97;5057475;28;19933;-50
2022/07/07 10:39:44;;;;;;;0.03;0.00;;;;;;;18.40;100.00;102195.28;5056642;28;20025;-51
2022/07/07 10:42:34;;;;;;;0.40;0.00;;;;;;;18.40;100.00;102195.28;5059841;28;20025;-50
2022/07/07 10:44:59;;;;;;;2.47;0.30;;;;;;;18.43;100.00;102202.97;5070134;28;20285;-56
2022/07/07 10:47:25;;;;;;;2.72;0.50;;;;;;;18.46;100.00;102201.72;5065738;28;20492;-48
2022/07/07 10:49:55;;;;;;;0.17;0.00;;;;;;;18.39;100.00;102204.38;5058409;28;20029;-47
2022/07/07 10:52:22;;;;;;;0.15;0.03;;;;;;;18.31;100.00;102209.94;5058901;28;20037;-50
2022/07/07 10:54:50;;;;;;;0.00;0.00;;;;;;;18.26;100.00;102202.47;5056163;28;20033;-56
2022/07/07 10:57:18;;;;;;;0.30;0.00;;;;;;;18.57;100.00;102209.19;5062042;28;20040;-52
2022/07/07 11:00:05;;;;;;;0.13;0.10;;;;;;;18.88;100.00;102213.22;5064310;28;20057;-50
2022/07/07 11:02:37;;;;;;;2.03;0.08;;;;;;;18.80;100.00;102211.56;5059125;28;20039;-46
2022/07/07 11:05:25;;;;;;;0.55;0.00;;;;;;;18.91;100.00;102218.19;5062310;28;20031;-53
2022/07/07 11:07:57;;;;;;;0.35;0.00;;;;;;;19.01;100.00;102225.84;5057004;28;20040;-51
2022/07/07 11:10:43;;;;;;;1.70;0.00;;;;;;;18.97;100.00;102220.03;5060710;28;20029;-52
2022/07/07 11:13:28;;;;;;;3.28;0.15;;;;;;;18.93;100.00;102230.38;5056465;28;20120;-47
2022/07/07 11:16:06;;;;;;;4.32;0.20;;;;;;;18.95;100.00;102230.19;5063632;28;20060;-52
2022/07/07 11:18:34;;;;;;;0.17;0.00;;;;;;;19.16;100.00;102231.88;5061535;28;20378;-54
2022/07/07 11:21:03;;;;;;;0.22;0.00;;;;;;;19.54;100.00;102233.94;5059975;28;20040;-54